Time;durP1;ratioP1;P1;durP2;ratioP2;P2;SDS_P1;SDS_P2;PMS_P1;PMS_P2;Temp;Humidity;BMP_temperature;BMP_pressure;BME280_temperature;BME280_humidity;BME280_pressure;Samples;Min_cycle;Max_cycle;Signal;HPM_P1;HPM_P2
2023/03/03 00:03:08;;;;;;;25.97;13.03;;;;;;;-1.46;100.00;101265.73;5092819;56;1143331;-78
2023/03/03 00:08:15;;;;;;;66.17;17.30;;;;;;;-1.49;100.00;101262.33;5103688;56;1143020;-74
2023/03/03 00:13:25;;;;;;;35.23;16.03;;;;;;;-1.47;100.00;101256.67;5086626;56;1142970;-77
2023/03/03 00:18:37;;;;;;;25.23;12.43;;;;;;;-1.43;100.00;101260.94;5088459;56;1142941;-78
2023/03/03 00:23:43;;;;;;;25.17;12.43;;;;;;;-1.46;100.00;101262.28;5097517;55;1142894;-79
2023/03/03 00:28:53;;;;;;;24.72;11.53;;;;;;;-1.46;100.00;101260.55;5151926;55;1143026;-76
2023/03/03 00:34:12;;;;;;;21.40;11.57;;;;;;;-1.48;100.00;101262.74;5153900;55;1143024;-81
2023/03/03 00:39:35;;;;;;;40.73;17.77;;;;;;;-1.53;100.00;101253.73;5039465;56;1143170;-75
2023/03/03 00:44:59;;;;;;;22.95;10.98;;;;;;;-1.51;100.00;101263.65;5042367;56;1148902;-78
2023/03/03 00:50:30;;;;;;;28.63;13.03;;;;;;;-1.47;100.00;101254.94;5060891;56;1142908;-79
2023/03/03 00:55:37;;;;;;;36.80;17.10;;;;;;;-1.44;100.00;101243.66;5049960;57;1142838;-76
2023/03/03 01:00:44;;;;;;;39.25;16.80;;;;;;;-1.47;100.00;101225.11;5017997;57;1142953;-80
2023/03/03 01:05:52;;;;;;;20.83;10.47;;;;;;;-1.44;100.00;101224.20;5052521;57;1143043;-75
2023/03/03 01:11:05;;;;;;;29.83;15.10;;;;;;;-1.47;100.00;101230.73;5150507;56;1143016;-79
2023/03/03 01:16:11;;;;;;;23.65;11.33;;;;;;;-1.58;100.00;101233.52;5171682;55;1142989;-80
2023/03/03 01:21:17;;;;;;;20.73;10.17;;;;;;;-1.62;100.00;101219.32;5134045;55;1142823;-77
2023/03/03 01:26:23;;;;;;;18.77;9.77;;;;;;;-1.63;100.00;101203.34;5086714;55;1142965;-77
2023/03/03 01:31:29;;;;;;;34.00;16.55;;;;;;;-1.66;100.00;101202.09;5116600;56;1140810;-79
2023/03/03 01:36:36;;;;;;;35.63;15.93;;;;;;;-1.68;100.00;101200.81;5078380;56;1142938;-82
2023/03/03 01:41:42;;;;;;;28.60;12.05;;;;;;;-1.62;100.00;101197.28;5032695;57;1152375;-80
2023/03/03 01:46:58;;;;;;;20.10;10.20;;;;;;;-1.56;100.00;101183.77;5032683;57;1142887;-78
2023/03/03 01:52:08;;;;;;;24.70;11.80;;;;;;;-1.56;100.00;101186.37;5052038;57;1142809;-80
2023/03/03 01:57:27;;;;;;;23.07;11.75;;;;;;;-1.59;100.00;101189.45;4871564;58;1142954;-75
2023/03/03 02:02:35;;;;;;;25.07;11.67;;;;;;;-1.61;100.00;101201.14;5010871;57;1142866;-78
2023/03/03 02:07:41;;;;;;;23.20;11.77;;;;;;;-1.58;100.00;101209.31;5026128;57;1143009;-75
2023/03/03 02:12:53;;;;;;;17.20;9.55;;;;;;;-1.58;100.00;101192.45;5136742;55;1143283;-71
2023/03/03 02:18:12;;;;;;;15.43;7.67;;;;;;;-1.62;100.00;101207.21;5118263;55;1141031;-76
2023/03/03 02:23:52;;;;;;;17.90;9.87;;;;;;;-1.70;100.00;101199.16;5038007;56;1141038;-78
2023/03/03 02:28:59;;;;;;;19.60;7.77;;;;;;;-1.75;100.00;101218.67;4967666;57;1141192;-73
2023/03/03 02:34:07;;;;;;;14.27;7.93;;;;;;;-1.79;100.00;101201.00;5191588;55;1141215;-74
2023/03/03 02:39:18;;;;;;;14.90;8.23;;;;;;;-1.78;100.00;101191.48;5042786;56;1141168;-77
2023/03/03 02:44:30;;;;;;;21.40;10.17;;;;;;;-1.79;100.00;101178.11;5116974;56;1140941;-78
2023/03/03 02:49:38;;;;;;;16.55;8.43;;;;;;;-1.85;100.00;101198.97;5119655;56;1143053;-73
2023/03/03 02:54:44;;;;;;;17.50;8.67;;;;;;;-1.90;100.00;101205.95;5149743;56;1144846;-77
2023/03/03 02:59:50;;;;;;;22.50;11.33;;;;;;;-1.90;100.00;101215.02;5121617;56;1140884;-80
2023/03/03 03:04:56;;;;;;;18.37;9.80;;;;;;;-1.88;100.00;101220.60;5045279;56;1142970;-79
2023/03/03 03:10:03;;;;;;;18.77;9.27;;;;;;;-1.93;100.00;101195.18;5048498;56;1140856;-72
2023/03/03 03:15:11;;;;;;;21.07;10.00;;;;;;;-1.83;100.00;101182.48;4992495;56;1140739;-74
2023/03/03 03:20:17;;;;;;;19.00;10.00;;;;;;;-1.84;100.00;101167.83;5032516;56;1142858;-77
2023/03/03 03:25:23;;;;;;;20.27;9.97;;;;;;;-1.89;100.00;101170.93;5041851;57;1142919;-80
2023/03/03 03:30:29;;;;;;;12.27;6.57;;;;;;;-1.86;100.00;101172.19;4996978;56;1141085;-74
2023/03/03 03:35:37;;;;;;;13.60;7.58;;;;;;;-1.88;100.00;101164.87;4966916;57;1140908;-78
2023/03/03 03:40:43;;;;;;;19.23;9.87;;;;;;;-1.95;100.00;101161.95;4959697;57;1140854;-80
2023/03/03 03:45:50;;;;;;;12.93;7.40;;;;;;;-1.99;100.00;101168.08;4979788;57;1140738;-81
2023/03/03 03:50:56;;;;;;;18.40;8.68;;;;;;;-1.99;100.00;101171.97;4960369;57;1140839;-80
2023/03/03 03:56:03;;;;;;;19.07;9.27;;;;;;;-2.04;100.00;101164.69;5025391;57;1141053;-78
2023/03/03 04:01:10;;;;;;;19.90;9.90;;;;;;;-2.01;100.00;101163.36;4979208;57;1140957;-81
2023/03/03 04:06:18;;;;;;;17.73;8.80;;;;;;;-1.99;100.00;101158.15;4919942;57;1140954;-76
2023/03/03 04:11:24;;;;;;;15.97;7.20;;;;;;;-1.96;100.00;101142.52;4970674;57;1140962;-77
2023/03/03 04:16:29;;;;;;;14.78;7.92;;;;;;;-1.95;100.00;101137.32;4977874;56;1141018;-78
2023/03/03 04:21:35;;;;;;;15.83;7.03;;;;;;;-1.98;100.00;101150.77;5176964;55;1140877;-77
2023/03/03 04:26:41;;;;;;;27.40;9.17;;;;;;;-2.04;100.00;101142.66;5174619;55;1140808;-81
2023/03/03 04:31:48;;;;;;;23.33;10.77;;;;;;;-2.10;100.00;101145.34;5130714;55;1140796;-74
2023/03/03 04:36:54;;;;;;;22.62;10.25;;;;;;;-2.13;100.00;101147.97;5187906;55;1143041;-73
2023/03/03 04:42:00;;;;;;;28.23;12.37;;;;;;;-2.14;100.00;101144.52;5216657;55;1143140;-66
2023/03/03 04:47:07;;;;;;;25.87;10.97;;;;;;;-2.13;100.00;101153.16;5216656;55;1143074;-67
2023/03/03 04:52:13;;;;;;;35.17;13.90;;;;;;;-2.16;100.00;101158.41;5231490;55;1142857;-66
2023/03/03 04:57:19;;;;;;;29.10;12.77;;;;;;;-2.16;100.00;101160.56;5129403;55;1142855;-69
2023/03/03 05:02:25;;;;;;;31.27;13.07;;;;;;;-2.16;100.00;101138.98;5129417;55;1142862;-64
2023/03/03 05:07:31;;;;;;;32.65;12.30;;;;;;;-2.14;100.00;101118.61;5129545;56;1143134;-64
2023/03/03 05:12:37;;;;;;;28.30;12.33;;;;;;;-2.12;100.00;101110.81;5146672;56;1143168;-66
2023/03/03 05:17:43;;;;;;;25.53;11.37;;;;;;;-2.13;100.00;101120.33;5121924;56;1143066;-68
2023/03/03 05:22:50;;;;;;;31.82;13.43;;;;;;;-2.11;100.00;101126.78;5121473;56;1142955;-69
2023/03/03 05:27:56;;;;;;;32.93;12.73;;;;;;;-2.10;100.00;101125.91;5144181;56;1142933;-72
2023/03/03 05:33:02;;;;;;;28.47;11.90;;;;;;;-2.07;100.00;101146.59;5130402;56;1142913;-64
2023/03/03 05:38:07;;;;;;;35.97;12.60;;;;;;;-2.07;100.00;101152.22;5130285;56;1143001;-69
2023/03/03 05:43:13;;;;;;;27.90;11.73;;;;;;;-2.04;100.00;101160.81;5150293;56;1142988;-67
2023/03/03 05:48:19;;;;;;;26.17;11.57;;;;;;;-2.03;100.00;101183.25;5129512;56;1143074;-70
2023/03/03 05:53:25;;;;;;;26.67;10.80;;;;;;;-2.01;100.00;101176.75;5130065;56;1143057;-68
2023/03/03 05:58:32;;;;;;;16.05;7.42;;;;;;;-1.98;100.00;101155.95;5130167;56;1143095;-71
2023/03/03 06:03:38;;;;;;;17.17;8.40;;;;;;;-2.03;100.00;101145.67;5150562;56;1140856;-67
2023/03/03 06:08:43;;;;;;;17.17;9.17;;;;;;;-2.04;100.00;101159.51;5130624;56;1140859;-67
2023/03/03 06:13:50;;;;;;;16.77;6.53;;;;;;;-2.05;100.00;101166.02;5145917;55;1140938;-69
2023/03/03 06:18:57;;;;;;;22.13;9.97;;;;;;;-2.02;100.00;101186.70;5223991;55;1140887;-65
2023/03/03 06:24:03;;;;;;;23.30;10.63;;;;;;;-2.03;100.00;101181.10;5187665;55;1141060;-66
2023/03/03 06:29:08;;;;;;;25.23;9.33;;;;;;;-2.07;100.00;101177.69;5153405;55;1142841;-70
2023/03/03 06:34:14;;;;;;;19.50;9.37;;;;;;;-2.08;100.00;101178.57;5142802;55;1140820;-69
2023/03/03 06:39:22;;;;;;;20.80;9.43;;;;;;;-2.05;100.00;101183.72;5121449;56;1140735;-70
2023/03/03 06:44:29;;;;;;;20.30;8.67;;;;;;;-2.01;100.00;101176.31;5122632;55;1140878;-69
2023/03/03 06:49:34;;;;;;;19.02;10.03;;;;;;;-2.00;100.00;101172.84;5187082;55;1140987;-69
2023/03/03 06:54:41;;;;;;;15.80;7.63;;;;;;;-2.01;100.00;101180.20;5141438;56;1142847;-67
2023/03/03 06:59:51;;;;;;;20.70;10.10;;;;;;;-2.07;100.00;101166.47;5122092;55;1141000;-68
2023/03/03 07:04:57;;;;;;;27.93;13.48;;;;;;;-2.07;100.00;101175.10;5121257;56;1143023;-66
2023/03/03 07:10:20;;;;;;;18.53;8.60;;;;;;;-2.04;100.00;101180.24;5141526;55;1142965;-72
2023/03/03 07:15:33;;;;;;;20.73;9.50;;;;;;;-2.00;100.00;101183.22;5121952;56;1140915;-64
2023/03/03 07:20:41;;;;;;;24.82;12.45;;;;;;;-2.02;100.00;101181.52;5171937;55;1140761;-68
2023/03/03 07:25:47;;;;;;;22.57;10.77;;;;;;;-2.00;100.00;101190.98;5229052;55;1143042;-66
2023/03/03 07:30:55;;;;;;;19.20;10.55;;;;;;;-1.96;100.00;101205.59;5133174;55;1142959;-70
2023/03/03 07:36:03;;;;;;;26.52;10.35;;;;;;;-1.93;100.00;101217.21;5122304;55;1142890;-69
2023/03/03 07:41:15;;;;;;;25.63;10.20;;;;;;;-1.86;100.00;101221.88;5150252;55;1142874;-65
2023/03/03 07:46:47;;;;;;;26.27;11.13;;;;;;;-1.85;100.00;101222.30;5208140;55;1142837;-70
2023/03/03 07:51:58;;;;;;;23.87;10.90;;;;;;;-1.86;100.00;101218.84;5208879;55;1142846;-70
2023/03/03 07:57:20;;;;;;;23.77;11.20;;;;;;;-1.81;100.00;101226.09;5209309;55;1143278;-72
2023/03/03 08:02:41;;;;;;;24.80;10.88;;;;;;;-1.81;100.00;101224.80;5208614;55;1142908;-69
2023/03/03 08:07:50;;;;;;;28.53;12.30;;;;;;;-1.74;100.00;101222.98;5229830;55;1142990;-64
2023/03/03 08:12:57;;;;;;;24.00;10.90;;;;;;;-1.70;100.00;101227.68;5209129;55;1143283;-69
2023/03/03 08:18:05;;;;;;;23.87;10.68;;;;;;;-1.68;100.00;101232.41;5196566;55;1143035;-67
2023/03/03 08:23:11;;;;;;;25.27;11.33;;;;;;;-1.67;100.00;101225.87;5137048;56;1142953;-71
2023/03/03 08:28:18;;;;;;;27.70;11.27;;;;;;;-1.63;100.00;101227.54;5147237;55;1142878;-69
2023/03/03 08:33:24;;;;;;;27.57;12.67;;;;;;;-1.60;100.00;101213.23;5199363;55;1142976;-69
2023/03/03 08:38:30;;;;;;;25.77;13.27;;;;;;;-1.56;100.00;101203.67;5138499;55;1142922;-68
2023/03/03 08:43:37;;;;;;;28.60;11.50;;;;;;;-1.51;100.00;101205.72;5203531;55;1142930;-70
2023/03/03 08:48:42;;;;;;;27.93;10.97;;;;;;;-1.48;100.00;101211.72;5183524;55;1142859;-69
2023/03/03 08:53:48;;;;;;;28.93;13.73;;;;;;;-1.42;100.00;101212.06;5183117;55;1142923;-65
2023/03/03 08:58:54;;;;;;;32.80;13.22;;;;;;;-1.37;100.00;101210.67;5203881;55;1142786;-66
2023/03/03 09:04:00;;;;;;;35.88;13.95;;;;;;;-1.31;100.00;101214.02;5182987;55;1142990;-64
2023/03/03 09:09:06;;;;;;;30.40;13.17;;;;;;;-1.29;100.00;101217.45;5183070;55;1142859;-66
2023/03/03 09:14:19;;;;;;;40.03;17.77;;;;;;;-1.24;100.00;101218.23;5203498;55;1142905;-70
2023/03/03 09:19:32;;;;;;;32.50;13.45;;;;;;;-1.20;100.00;101210.78;5161556;55;1143112;-66
2023/03/03 09:24:38;;;;;;;26.93;12.67;;;;;;;-1.17;100.00;101220.26;5130347;56;1142928;-69
2023/03/03 09:29:44;;;;;;;33.97;14.67;;;;;;;-1.22;100.00;101216.91;5186393;55;1142903;-67
2023/03/03 09:34:50;;;;;;;44.57;16.70;;;;;;;-1.26;100.00;101212.21;5238387;55;1142998;-69
2023/03/03 09:39:58;;;;;;;49.18;19.07;;;;;;;-1.23;100.00;101227.73;5218121;55;1142910;-69
2023/03/03 09:45:33;;;;;;;35.55;14.87;;;;;;;-1.20;100.00;101219.02;5218019;55;1142923;-68
2023/03/03 09:51:13;;;;;;;42.37;17.57;;;;;;;-1.16;100.00;101218.08;5121852;56;1143074;-68
2023/03/03 09:56:23;;;;;;;33.70;14.63;;;;;;;-1.06;100.00;101221.77;5063839;55;1143079;-65
2023/03/03 10:01:48;;;;;;;35.40;13.97;;;;;;;-0.96;100.00;101215.12;5184126;55;1143188;-68
2023/03/03 10:07:19;;;;;;;40.73;15.05;;;;;;;-0.94;100.00;101207.72;5125909;55;1142928;-68
2023/03/03 10:13:02;;;;;;;27.02;12.60;;;;;;;-0.93;100.00;101203.38;5135871;55;1142993;-68
2023/03/03 10:18:48;;;;;;;33.65;13.13;;;;;;;-0.89;100.00;101195.92;5150852;55;1142868;-67
2023/03/03 10:24:19;;;;;;;38.50;17.00;;;;;;;-0.80;100.00;101203.55;5129872;56;1143003;-65
2023/03/03 10:29:47;;;;;;;27.50;13.43;;;;;;;-0.78;100.00;101203.94;5126589;55;1143091;-68
2023/03/03 10:35:14;;;;;;;31.68;13.68;;;;;;;-0.73;100.00;101198.63;5186413;55;1142949;-69
2023/03/03 10:40:48;;;;;;;29.23;12.13;;;;;;;-0.69;100.00;101193.79;4953890;57;1143214;-66
2023/03/03 10:46:17;;;;;;;46.65;17.55;;;;;;;-0.65;100.00;101198.48;5052406;56;1143041;-68
2023/03/03 10:51:47;;;;;;;54.37;22.67;;;;;;;-0.61;100.00;101200.97;5044976;56;1143011;-69
2023/03/03 10:57:18;;;;;;;29.27;12.03;;;;;;;-0.56;100.00;101199.58;5044656;56;1142902;-70
2023/03/03 11:02:55;;;;;;;43.38;19.82;;;;;;;-0.53;100.00;101200.82;4976625;57;1143071;-68
2023/03/03 11:08:11;;;;;;;36.20;14.70;;;;;;;-0.48;100.00;101190.75;4980980;57;1142880;-71
2023/03/03 11:13:49;;;;;;;34.03;13.30;;;;;;;-0.49;100.00;101176.49;5044604;56;1142835;-72
2023/03/03 11:19:11;;;;;;;31.37;12.23;;;;;;;-0.49;100.00;101164.80;4978447;56;1152356;-71
2023/03/03 11:25:00;;;;;;;24.83;11.53;;;;;;;-0.53;100.00;101170.50;5022787;57;1142865;-69
2023/03/03 11:30:28;;;;;;;42.23;16.03;;;;;;;-0.51;100.00;101164.83;5051551;56;1143006;-71
2023/03/03 11:35:50;;;;;;;27.80;12.15;;;;;;;-0.44;100.00;101160.34;5060171;56;1142965;-66
2023/03/03 11:41:02;;;;;;;15.83;6.50;;;;;;;-0.36;100.00;101151.94;5065290;56;1142979;-72
2023/03/03 11:46:26;;;;;;;24.13;8.00;;;;;;;-0.34;100.00;101151.91;5045533;56;1140813;-68
2023/03/03 11:51:45;;;;;;;20.63;9.13;;;;;;;-0.31;100.00;101155.30;5045325;56;1140731;-69
2023/03/03 11:56:55;;;;;;;25.90;13.37;;;;;;;-0.25;100.00;101155.59;5045636;56;1140809;-68
2023/03/03 12:02:05;;;;;;;22.22;10.88;;;;;;;-0.23;100.00;101154.67;5065042;56;1143026;-65
2023/03/03 12:07:43;;;;;;;22.07;10.57;;;;;;;-0.18;100.00;101146.33;5001463;55;1142793;-65
2023/03/03 12:12:56;;;;;;;22.63;10.80;;;;;;;-0.18;100.00;101146.77;5072016;55;1142904;-70
2023/03/03 12:18:35;;;;;;;17.15;9.68;;;;;;;-0.18;100.00;101144.17;5084881;55;1142878;-70
2023/03/03 12:24:13;;;;;;;16.48;9.35;;;;;;;-0.17;100.00;101143.28;5054845;55;1141217;-67
2023/03/03 12:29:54;;;;;;;19.47;10.27;;;;;;;-0.15;100.00;101147.53;5036239;55;1140863;-68
2023/03/03 12:35:19;;;;;;;23.07;9.77;;;;;;;-0.06;100.00;101143.43;5120857;55;1143163;-67
2023/03/03 12:40:34;;;;;;;22.33;8.50;;;;;;;0.02;100.00;101142.37;5063049;54;1141021;-73
2023/03/03 12:45:59;;;;;;;30.97;13.20;;;;;;;0.09;100.00;101132.24;5098461;55;1138789;-78
2023/03/03 12:51:46;;;;;;;16.77;9.20;;;;;;;0.11;100.00;101139.13;5123021;55;1141002;-79
2023/03/03 12:56:57;;;;;;;21.77;12.80;;;;;;;0.10;100.00;101141.31;5096797;55;1138647;-80
2023/03/03 13:02:37;;;;;;;19.67;10.07;;;;;;;0.16;100.00;101139.84;5096030;56;1140830;-83
2023/03/03 13:08:30;;;;;;;19.17;9.35;;;;;;;0.19;100.00;101124.16;5091825;56;1140965;-76
2023/03/03 13:13:54;;;;;;;31.40;12.53;;;;;;;0.24;100.00;101123.61;5096036;56;1138930;-76
2023/03/03 13:19:29;;;;;;;31.47;12.80;;;;;;;0.26;100.00;101124.43;5123803;55;1141062;-78
2023/03/03 13:25:04;;;;;;;32.73;13.37;;;;;;;0.34;100.00;101120.31;4951651;57;1140960;-78
2023/03/03 13:30:26;;;;;;;25.53;11.83;;;;;;;0.35;100.00;101116.82;5015474;57;1140879;-77
2023/03/03 13:35:50;;;;;;;24.87;10.67;;;;;;;0.38;100.00;101108.09;4949868;57;1141363;-75
2023/03/03 13:41:09;;;;;;;26.86;12.00;;;;;;;0.43;100.00;101103.18;5038176;57;1140792;-79
2023/03/03 13:46:44;;;;;;;36.60;13.93;;;;;;;0.44;100.00;101093.63;4972266;57;1141010;-74
2023/03/03 13:52:04;;;;;;;36.58;13.48;;;;;;;0.47;100.00;101089.17;4976073;57;1141043;-79
2023/03/03 13:57:20;;;;;;;46.98;19.17;;;;;;;0.48;100.00;101091.33;5009349;57;1141012;-77
2023/03/03 14:02:48;;;;;;;33.87;14.13;;;;;;;0.49;100.00;101088.69;5116432;55;1140879;-79
2023/03/03 14:08:18;;;;;;;39.53;17.30;;;;;;;0.51;100.00;101075.19;5098911;55;1141078;-76
2023/03/03 14:13:51;;;;;;;33.23;12.13;;;;;;;0.49;100.00;101061.36;5039417;56;1141092;-78
2023/03/03 14:19:03;;;;;;;31.25;12.78;;;;;;;0.49;100.00;101078.27;5128243;55;1140981;-75
2023/03/03 14:24:24;;;;;;;32.95;12.63;;;;;;;0.51;100.00;101071.28;5204707;55;1140895;-75
2023/03/03 14:29:33;;;;;;;31.73;14.20;;;;;;;0.51;100.00;101075.19;5146223;55;1141120;-80
2023/03/03 14:34:41;;;;;;;28.13;10.97;;;;;;;0.55;100.00;101077.27;5101274;55;1140864;-78
2023/03/03 14:39:52;;;;;;;31.57;14.27;;;;;;;0.53;100.00;101068.20;5082897;55;1140844;-79
2023/03/03 14:44:58;;;;;;;32.70;13.20;;;;;;;0.50;100.00;101046.60;5028530;56;1141055;-77
2023/03/03 14:50:09;;;;;;;35.53;15.07;;;;;;;0.50;100.00;101046.60;5057126;56;1141194;-78
2023/03/03 14:55:37;;;;;;;36.97;16.43;;;;;;;0.49;100.00;101047.49;5072495;55;1140940;-75
2023/03/03 15:00:43;;;;;;;31.90;13.13;;;;;;;0.51;100.00;101043.95;5098658;55;1140898;-80
2023/03/03 15:05:56;;;;;;;39.70;16.10;;;;;;;0.55;100.00;101042.13;5131236;55;1140962;-76
2023/03/03 15:11:30;;;;;;;41.05;17.45;;;;;;;0.58;100.00;101044.66;5137461;56;1140892;-78
2023/03/03 15:16:36;;;;;;;27.60;13.13;;;;;;;0.58;100.00;101041.61;5105731;55;1140828;-76
2023/03/03 15:22:01;;;;;;;26.75;12.75;;;;;;;0.60;100.00;101038.52;5099864;56;1140822;-80
2023/03/03 15:27:32;;;;;;;28.45;12.90;;;;;;;0.63;100.00;101034.95;5070164;56;1141139;-79
2023/03/03 15:32:48;;;;;;;39.97;14.40;;;;;;;0.63;100.00;101029.73;5056936;56;1140847;-81
2023/03/03 15:38:11;;;;;;;29.90;11.40;;;;;;;0.63;100.00;101022.78;5097714;55;1140873;-74
2023/03/03 15:43:52;;;;;;;34.07;14.00;;;;;;;0.61;100.00;101010.73;5172744;55;1141113;-81
2023/03/03 15:49:06;;;;;;;34.88;14.50;;;;;;;0.61;100.00;101012.86;5078393;55;1140840;-75
2023/03/03 15:54:43;;;;;;;34.97;13.57;;;;;;;0.64;100.00;101008.88;5062005;56;1140868;-75
2023/03/03 16:00:21;;;;;;;34.58;15.28;;;;;;;0.64;100.00;101011.92;5134631;55;1140823;-77
2023/03/03 16:05:39;;;;;;;33.38;12.90;;;;;;;0.64;100.00;101005.42;5151647;55;1140843;-78
2023/03/03 16:11:10;;;;;;;39.25;15.68;;;;;;;0.63;100.00;101009.77;5193807;55;1141045;-80
2023/03/03 16:16:36;;;;;;;49.53;17.53;;;;;;;0.64;100.00;101008.88;5176225;55;1141067;-75
2023/03/03 16:21:58;;;;;;;35.48;14.90;;;;;;;0.63;100.00;101004.56;5180319;55;1140822;-75
2023/03/03 16:27:11;;;;;;;36.47;15.27;;;;;;;0.63;100.00;101003.71;5108248;56;1141009;-76
2023/03/03 16:32:22;;;;;;;41.63;16.53;;;;;;;0.63;100.00;101005.87;5133148;55;1140877;-75
2023/03/03 16:38:02;;;;;;;38.77;12.57;;;;;;;0.62;100.00;101006.77;5097331;55;1140941;-73
2023/03/03 16:43:22;;;;;;;36.88;15.53;;;;;;;0.62;100.00;101002.00;5064531;55;1140800;-77
2023/03/03 16:48:43;;;;;;;32.40;13.43;;;;;;;0.63;100.00;101008.47;5032783;57;1140918;-71
2023/03/03 16:54:22;;;;;;;41.80;15.77;;;;;;;0.65;100.00;101011.88;5056076;57;1140860;-77
2023/03/03 16:59:35;;;;;;;37.27;15.63;;;;;;;0.66;100.00;101008.84;5071905;55;1140906;-76
2023/03/03 17:05:06;;;;;;;37.80;16.20;;;;;;;0.66;100.00;101004.93;5030568;55;1140947;-76
2023/03/03 17:10:27;;;;;;;33.92;14.43;;;;;;;0.66;100.00;100998.42;5040673;56;1140909;-77
2023/03/03 17:15:47;;;;;;;32.40;14.97;;;;;;;0.64;100.00;101001.06;4994358;56;1140812;-73
2023/03/03 17:21:01;;;;;;;30.37;13.55;;;;;;;0.65;100.00;101004.08;5084529;55;1140927;-74
2023/03/03 17:26:41;;;;;;;33.80;14.50;;;;;;;0.65;100.00;101001.92;5053781;56;1141014;-79
2023/03/03 17:32:11;;;;;;;23.77;10.32;;;;;;;0.65;100.00;101004.52;5075988;56;1140881;-75
2023/03/03 17:37:39;;;;;;;36.37;14.30;;;;;;;0.64;100.00;101002.37;5116873;56;1141029;-77
2023/03/03 17:43:15;;;;;;;32.73;15.40;;;;;;;0.64;100.00;100999.77;5115358;55;1140863;-78
2023/03/03 17:48:31;;;;;;;28.17;14.47;;;;;;;0.63;100.00;101001.96;5078885;56;1140791;-72
2023/03/03 17:54:05;;;;;;;31.20;15.13;;;;;;;0.60;100.00;100991.66;5079210;55;1140943;-73
2023/03/03 17:59:24;;;;;;;35.67;17.50;;;;;;;0.61;100.00;100991.22;5055815;56;1140923;-75
2023/03/03 18:05:00;;;;;;;27.53;12.93;;;;;;;0.61;100.00;100985.53;5123685;55;1140931;-73
2023/03/03 18:10:34;;;;;;;32.03;17.48;;;;;;;0.59;100.00;100994.31;5100518;56;1141051;-64
2023/03/03 18:16:03;;;;;;;35.50;17.27;;;;;;;0.58;100.00;100992.16;5044486;57;1140800;-67
2023/03/03 18:21:48;;;;;;;31.93;14.70;;;;;;;0.57;100.00;100985.24;5091316;56;1140807;-73
2023/03/03 18:26:56;;;;;;;26.50;13.90;;;;;;;0.53;100.00;100976.26;5040044;56;1140908;-71
2023/03/03 18:32:06;;;;;;;33.92;18.20;;;;;;;0.51;100.00;100970.24;5175919;55;1141135;-66
2023/03/03 18:37:37;;;;;;;36.23;16.53;;;;;;;0.49;100.00;100967.68;5183312;55;1141827;-69
2023/03/03 18:42:47;;;;;;;34.77;16.70;;;;;;;0.48;100.00;100964.67;5116354;54;1140980;-65
2023/03/03 18:48:10;;;;;;;39.20;17.37;;;;;;;0.45;100.00;100961.33;5168472;55;1140739;-69
2023/03/03 18:53:28;;;;;;;28.53;14.57;;;;;;;0.42;100.00;100941.90;5226471;55;1140876;-65
2023/03/03 18:58:43;;;;;;;33.80;16.67;;;;;;;0.42;100.00;100950.56;5174400;55;1140937;-73
2023/03/03 19:03:53;;;;;;;30.23;14.80;;;;;;;0.43;100.00;100940.56;5188268;55;1140845;-67
2023/03/03 19:08:59;;;;;;;23.05;11.85;;;;;;;0.44;100.00;100940.11;5134446;56;1140796;-70
2023/03/03 19:14:30;;;;;;;19.70;7.83;;;;;;;0.44;100.00;100941.41;5086791;56;1140782;-73
2023/03/03 19:19:40;;;;;;;26.37;14.50;;;;;;;0.39;100.00;100938.94;5103147;55;1139000;-70
2023/03/03 19:25:18;;;;;;;26.87;11.63;;;;;;;0.37;100.00;100934.22;5087412;55;1140980;-68
2023/03/03 19:30:53;;;;;;;28.43;13.60;;;;;;;0.39;100.00;100935.03;5033823;57;1140994;-67
2023/03/03 19:36:21;;;;;;;26.00;12.07;;;;;;;0.40;100.00;100924.17;4899044;58;1141213;-68
2023/03/03 19:41:43;;;;;;;20.35;8.83;;;;;;;0.41;100.00;100923.28;5019498;57;1140888;-68
2023/03/03 19:47:24;;;;;;;19.93;11.13;;;;;;;0.41;100.00;100908.52;5027571;57;1138915;-69
2023/03/03 19:52:39;;;;;;;33.00;13.87;;;;;;;0.45;100.00;100899.73;5027914;56;1140858;-71
2023/03/03 19:58:06;;;;;;;33.40;15.17;;;;;;;0.44;100.00;100896.73;5045319;56;1141043;-65
2023/03/03 20:03:32;;;;;;;33.70;14.13;;;;;;;0.44;100.00;100888.07;5051832;55;1140843;-71
2023/03/03 20:08:58;;;;;;;42.43;18.10;;;;;;;0.45;100.00;100872.86;5165337;55;1140793;-71
2023/03/03 20:14:12;;;;;;;34.17;14.67;;;;;;;0.45;100.00;100880.67;5151873;55;1140814;-67
2023/03/03 20:19:38;;;;;;;32.03;12.50;;;;;;;0.45;100.00;100868.52;5140338;55;1140956;-68
2023/03/03 20:25:25;;;;;;;36.03;15.53;;;;;;;0.48;100.00;100862.34;5162834;55;1141174;-70
2023/03/03 20:30:38;;;;;;;43.10;17.97;;;;;;;0.50;100.00;100860.55;5125453;55;1140909;-68
2023/03/03 20:36:00;;;;;;;37.50;17.05;;;;;;;0.52;100.00;100864.80;5112368;55;1140907;-71
2023/03/03 20:41:31;;;;;;;41.03;16.47;;;;;;;0.54;100.00;100851.30;5064181;56;1140958;-68
2023/03/03 20:47:10;;;;;;;51.10;20.60;;;;;;;0.55;100.00;100847.80;5023952;57;1140834;-66
2023/03/03 20:52:50;;;;;;;35.17;14.57;;;;;;;0.59;100.00;100823.84;5080544;55;1140912;-70
2023/03/03 20:58:33;;;;;;;39.67;16.32;;;;;;;0.61;100.00;100832.45;5114529;55;1140849;-65
2023/03/03 21:03:45;;;;;;;36.90;16.93;;;;;;;0.64;100.00;100823.22;5135669;55;1140982;-68
2023/03/03 21:08:56;;;;;;;34.50;12.87;;;;;;;0.67;100.00;100817.92;5065214;57;1140946;-72
2023/03/03 21:14:07;;;;;;;25.80;11.80;;;;;;;0.67;100.00;100804.91;5119770;56;1141004;-68
2023/03/03 21:19:29;;;;;;;28.23;14.10;;;;;;;0.69;100.00;100803.11;5087418;56;1141066;-66
2023/03/03 21:24:57;;;;;;;37.00;16.95;;;;;;;0.70;100.00;100805.67;5114318;55;1140988;-67
2023/03/03 21:30:08;;;;;;;26.17;12.18;;;;;;;0.74;100.00;100787.36;5142443;55;1140831;-65
2023/03/03 21:35:23;;;;;;;32.38;11.43;;;;;;;0.72;100.00;100771.78;5106632;55;1140822;-70
2023/03/03 21:40:31;;;;;;;25.50;10.67;;;;;;;0.72;100.00;100759.22;5115345;56;1141013;-67
2023/03/03 21:45:37;;;;;;;23.13;10.97;;;;;;;0.74;100.00;100740.50;5049664;55;1140826;-71
2023/03/03 21:50:45;;;;;;;18.50;9.60;;;;;;;0.74;100.00;100730.94;5104960;55;1140748;-69
2023/03/03 21:55:53;;;;;;;26.00;12.67;;;;;;;0.77;100.00;100707.38;5078834;55;1138731;-68
2023/03/03 22:00:59;;;;;;;28.83;13.40;;;;;;;0.80;100.00;100691.66;5091219;55;1140791;-68
2023/03/03 22:06:06;;;;;;;22.43;9.47;;;;;;;0.85;100.00;100671.53;5136166;55;1145039;-71
2023/03/03 22:11:13;;;;;;;36.30;13.18;;;;;;;0.91;100.00;100651.80;5103118;55;1138844;-66
2023/03/03 22:16:19;;;;;;;27.02;11.60;;;;;;;0.98;100.00;100638.94;5103798;55;1140793;-70
2023/03/03 22:21:25;;;;;;;24.77;11.27;;;;;;;1.01;100.00;100633.63;5106966;55;1141329;-71
2023/03/03 22:26:31;;;;;;;45.73;13.97;;;;;;;1.09;100.00;100629.87;5087774;56;1140776;-67
2023/03/03 22:31:38;;;;;;;31.75;11.73;;;;;;;1.14;100.00;100630.11;5044903;56;1140768;-69
2023/03/03 22:36:44;;;;;;;29.53;13.97;;;;;;;1.22;100.00;100639.78;5066541;56;1140888;-71
2023/03/03 22:41:49;;;;;;;26.47;13.73;;;;;;;1.29;100.00;100648.23;5065060;56;1140951;-65
2023/03/03 22:46:55;;;;;;;25.03;12.40;;;;;;;1.34;100.00;100658.89;5129231;55;1140783;-68
2023/03/03 22:52:01;;;;;;;34.00;16.13;;;;;;;1.40;100.00;100665.16;5149600;55;1140843;-68
2023/03/03 22:57:07;;;;;;;35.35;14.40;;;;;;;1.45;100.00;100662.84;5129425;55;1141032;-70
2023/03/03 23:02:13;;;;;;;27.50;13.05;;;;;;;1.47;100.00;100667.09;5122949;55;1140932;-68
2023/03/03 23:07:19;;;;;;;26.20;13.13;;;;;;;1.52;100.00;100662.56;5121357;55;1140757;-69
2023/03/03 23:12:25;;;;;;;40.10;18.43;;;;;;;1.53;100.00;100635.56;5081445;55;1140810;-69
2023/03/03 23:17:31;;;;;;;26.02;12.40;;;;;;;1.56;100.00;100647.63;5119915;55;1140959;-65
2023/03/03 23:22:37;;;;;;;39.77;14.07;;;;;;;1.59;100.00;100638.39;5126867;55;1141098;-68